createdAt,value
2019-03-18T00:00:42.859Z,1000.29
2019-03-18T00:01:47.021Z,1000.27
2019-03-18T00:02:51.160Z,1000.27
2019-03-18T00:03:55.372Z,1000.27
2019-03-18T00:04:59.526Z,1000.24
2019-03-18T00:06:03.792Z,1000.30
2019-03-18T00:07:08.016Z,1000.28
2019-03-18T00:08:12.216Z,1000.29
2019-03-18T00:09:16.443Z,1000.31
2019-03-18T00:10:20.620Z,1000.32
2019-03-18T00:11:24.867Z,1000.35
2019-03-18T00:12:29.049Z,1000.33
2019-03-18T00:13:33.235Z,1000.35
2019-03-18T00:14:37.479Z,1000.35
2019-03-18T00:15:41.655Z,1000.34
2019-03-18T00:16:45.911Z,1000.28
2019-03-18T00:17:50.111Z,1000.30
2019-03-18T00:18:54.299Z,1000.29
2019-03-18T00:19:58.537Z,1000.29
2019-03-18T00:21:02.704Z,1000.28
2019-03-18T00:22:06.917Z,1000.27
2019-03-18T00:23:11.141Z,1000.27
2019-03-18T00:24:15.361Z,1000.32
2019-03-18T00:25:19.606Z,1000.33
2019-03-18T00:26:23.853Z,1000.31
2019-03-18T00:27:27.984Z,1000.32
2019-03-18T00:28:32.228Z,1000.35
2019-03-18T00:29:36.333Z,1000.32
2019-03-18T00:30:40.586Z,1000.37
2019-03-18T00:31:44.899Z,1000.37
2019-03-18T00:32:49.045Z,1000.28
2019-03-18T00:33:53.354Z,1000.31
2019-03-18T00:34:57.527Z,1000.34
2019-03-18T00:36:01.767Z,1000.33
2019-03-18T00:37:05.959Z,1000.38
2019-03-18T00:38:10.189Z,1000.34
2019-03-18T00:39:14.420Z,1000.31
2019-03-18T00:40:18.673Z,1000.32
2019-03-18T00:41:22.897Z,1000.29
2019-03-18T00:42:27.134Z,1000.33
2019-03-18T00:43:31.223Z,1000.32
2019-03-18T00:44:35.495Z,1000.29
2019-03-18T00:45:40.489Z,1000.28
2019-03-18T00:46:43.860Z,1000.24
2019-03-18T00:47:48.153Z,1000.28
2019-03-18T00:48:52.367Z,1000.27
2019-03-18T00:49:56.605Z,1000.27
2019-03-18T00:51:00.701Z,1000.29
2019-03-18T00:52:04.952Z,1000.28
2019-03-18T00:53:12.159Z,1000.30
2019-03-18T00:54:15.491Z,1000.27
2019-03-18T00:55:19.695Z,1000.24
2019-03-18T00:56:23.931Z,1000.30
2019-03-18T00:57:28.026Z,1000.26
2019-03-18T00:58:32.314Z,1000.26
2019-03-18T00:59:36.526Z,1000.25
2019-03-18T01:00:40.706Z,1000.26
2019-03-18T01:01:44.929Z,1000.27
2019-03-18T01:02:49.978Z,1000.27
2019-03-18T01:03:53.280Z,1000.28
2019-03-18T01:04:57.565Z,1000.25
2019-03-18T01:06:01.848Z,1000.28
2019-03-18T01:07:06.115Z,1000.30
2019-03-18T01:08:10.346Z,1000.25
2019-03-18T01:09:14.540Z,1000.34
2019-03-18T01:10:18.767Z,1000.26
2019-03-18T01:11:23.018Z,1000.28
2019-03-18T01:12:27.192Z,1000.27
2019-03-18T01:13:31.308Z,1000.26
2019-03-18T01:14:35.615Z,1000.33
2019-03-18T01:15:39.820Z,1000.34
2019-03-18T01:16:44.050Z,1000.38
2019-03-18T01:17:48.184Z,1000.31
2019-03-18T01:18:52.428Z,1000.40
2019-03-18T01:19:56.680Z,1000.31
2019-03-18T01:21:00.914Z,1000.31
2019-03-18T01:22:05.155Z,1000.31
2019-03-18T01:23:09.344Z,1000.22
2019-03-18T01:24:13.449Z,1000.22
2019-03-18T01:25:17.730Z,1000.22
2019-03-18T01:26:21.973Z,1000.17
2019-03-18T01:27:26.184Z,1000.14
2019-03-18T01:28:30.390Z,1000.13
2019-03-18T01:29:34.537Z,1000.14
2019-03-18T01:30:41.790Z,1000.15
2019-03-18T01:31:45.089Z,1000.11
2019-03-18T01:32:49.117Z,1000.18
2019-03-18T01:33:53.432Z,1000.15
2019-03-18T01:34:57.628Z,1000.15
2019-03-18T01:36:01.836Z,1000.11
2019-03-18T01:37:06.094Z,1000.12
2019-03-18T01:38:10.334Z,1000.14
2019-03-18T01:39:14.472Z,1000.12
2019-03-18T01:40:18.757Z,1000.14
2019-03-18T01:41:22.950Z,1000.15
2019-03-18T01:42:27.089Z,1000.09
2019-03-18T01:43:31.374Z,1000.09
2019-03-18T01:44:35.598Z,1000.13
2019-03-18T01:45:41.118Z,1000.13
2019-03-18T01:46:43.975Z,1000.13
2019-03-18T01:47:48.232Z,1000.19
2019-03-18T01:48:52.420Z,1000.14
2019-03-18T01:49:56.663Z,1000.18
2019-03-18T01:51:00.922Z,1000.18
2019-03-18T01:52:05.164Z,1000.19
2019-03-18T01:53:09.419Z,1000.09
2019-03-18T01:54:13.654Z,1000.21
2019-03-18T01:55:17.838Z,1000.23
2019-03-18T01:56:22.069Z,1000.18
2019-03-18T01:57:26.315Z,1000.13
2019-03-18T01:58:30.545Z,1000.18
2019-03-18T01:59:34.780Z,1000.22
2019-03-18T02:00:39.111Z,1000.22
2019-03-18T02:01:43.318Z,1000.23
2019-03-18T02:02:47.519Z,1000.24
2019-03-18T02:03:51.745Z,1000.20
2019-03-18T02:04:55.970Z,1000.17
2019-03-18T02:06:00.201Z,1000.17
2019-03-18T02:07:04.450Z,1000.21
2019-03-18T02:08:08.691Z,1000.16
2019-03-18T02:09:12.932Z,1000.13
2019-03-18T02:10:17.051Z,1000.11
2019-03-18T02:11:21.308Z,1000.12
2019-03-18T02:12:25.441Z,1000.11
2019-03-18T02:13:29.733Z,1000.11
2019-03-18T02:14:34.012Z,1000.15
2019-03-18T02:15:38.184Z,1000.18
2019-03-18T02:16:42.437Z,1000.13
2019-03-18T02:17:46.699Z,1000.15
2019-03-18T02:18:50.877Z,1000.13
2019-03-18T02:19:55.073Z,1000.10
2019-03-18T02:20:59.154Z,1000.14
2019-03-18T02:22:06.437Z,1000.20
2019-03-18T02:23:09.742Z,1000.20
2019-03-18T02:24:13.908Z,1000.15
2019-03-18T02:25:18.092Z,1000.16
2019-03-18T02:26:22.332Z,1000.17
2019-03-18T02:27:26.506Z,1000.13
2019-03-18T02:28:30.637Z,1000.11
2019-03-18T02:29:34.906Z,1000.14
2019-03-18T02:30:39.134Z,1000.12
2019-03-18T02:31:43.364Z,1000.15
2019-03-18T02:32:47.586Z,1000.16
2019-03-18T02:33:51.900Z,1000.22
2019-03-18T02:34:56.082Z,1000.21
2019-03-18T02:36:00.301Z,1000.15
2019-03-18T02:37:04.535Z,1000.23
2019-03-18T02:38:08.732Z,1000.21
2019-03-18T02:39:12.968Z,1000.24
2019-03-18T02:40:17.168Z,1000.23
2019-03-18T02:41:21.429Z,1000.26
2019-03-18T02:42:25.588Z,1000.24
2019-03-18T02:43:29.801Z,1000.21
2019-03-18T02:44:33.965Z,1000.21
2019-03-18T02:45:38.217Z,1000.23
2019-03-18T02:46:42.445Z,1000.23
2019-03-18T02:47:46.636Z,1000.23
2019-03-18T02:48:50.884Z,1000.23
2019-03-18T02:49:54.992Z,1000.24
2019-03-18T02:50:59.246Z,1000.17
2019-03-18T02:52:03.574Z,1000.14
2019-03-18T02:53:07.760Z,1000.16
2019-03-18T02:54:12.013Z,1000.13
2019-03-18T02:55:16.143Z,1000.13
2019-03-18T02:56:20.424Z,1000.14
2019-03-18T02:57:24.573Z,1000.12
2019-03-18T02:58:28.830Z,1000.10
2019-03-18T02:59:33.113Z,1000.16
2019-03-18T03:00:37.407Z,1000.11
2019-03-18T03:01:41.588Z,1000.15
2019-03-18T03:02:45.788Z,1000.16
2019-03-18T03:03:49.988Z,1000.14
2019-03-18T03:04:54.232Z,1000.14
2019-03-18T03:05:58.425Z,1000.16
2019-03-18T03:07:02.580Z,1000.17
2019-03-18T03:08:06.804Z,1000.13
2019-03-18T03:09:11.035Z,1000.15
2019-03-18T03:10:15.255Z,1000.14
2019-03-18T03:11:19.545Z,1000.12
2019-03-18T03:12:23.695Z,1000.15
2019-03-18T03:13:27.892Z,1000.16
2019-03-18T03:14:32.258Z,1000.16
2019-03-18T03:15:36.252Z,1000.23
2019-03-18T03:16:40.708Z,1000.20
2019-03-18T03:17:44.827Z,1000.20
2019-03-18T03:18:49.059Z,1000.17
2019-03-18T03:19:53.287Z,1000.20
2019-03-18T03:20:57.529Z,1000.20
2019-03-18T03:22:01.765Z,1000.27
2019-03-18T03:23:05.993Z,1000.29
2019-03-18T03:24:10.243Z,1000.28
2019-03-18T03:25:14.491Z,1000.29
2019-03-18T03:26:18.712Z,1000.32
2019-03-18T03:27:22.886Z,1000.33
2019-03-18T03:28:27.105Z,1000.26
2019-03-18T03:29:31.338Z,1000.29
2019-03-18T03:30:35.575Z,1000.32
2019-03-18T03:31:39.689Z,1000.28
2019-03-18T03:32:44.090Z,1000.33
2019-03-18T03:33:48.349Z,1000.27
2019-03-18T03:34:52.552Z,1000.28
2019-03-18T03:35:56.775Z,1000.24
2019-03-18T03:37:01.030Z,1000.27
2019-03-18T03:38:05.252Z,1000.28
2019-03-18T03:39:09.500Z,1000.25
2019-03-18T03:40:13.788Z,1000.24
2019-03-18T03:41:18.679Z,1000.31
2019-03-18T03:42:22.209Z,1000.39
2019-03-18T03:43:26.415Z,1000.36
2019-03-18T03:44:30.553Z,1000.42
2019-03-18T03:45:34.840Z,1000.43
2019-03-18T03:46:43.419Z,1000.49
2019-03-18T03:47:43.273Z,1000.49
2019-03-18T03:48:47.503Z,1000.53
2019-03-18T03:49:51.709Z,1000.50
2019-03-18T03:50:55.976Z,1000.49
2019-03-18T03:52:00.177Z,1000.57
2019-03-18T03:53:04.390Z,1000.54
2019-03-18T03:54:08.650Z,1000.58
2019-03-18T03:55:12.999Z,1000.56
2019-03-18T03:56:17.155Z,1000.60
2019-03-18T03:57:21.358Z,1000.65
2019-03-18T03:58:25.570Z,1000.59
2019-03-18T03:59:29.780Z,1000.60
2019-03-18T04:00:34.031Z,1000.63
2019-03-18T04:01:38.337Z,1000.57
2019-03-18T04:02:42.489Z,1000.63
2019-03-18T04:03:46.716Z,1000.56
2019-03-18T04:04:50.847Z,1000.59
2019-03-18T04:05:55.122Z,1000.59
2019-03-18T04:06:59.320Z,1000.60
2019-03-18T04:08:03.541Z,1000.67
2019-03-18T04:09:07.670Z,1000.68
2019-03-18T04:10:11.936Z,1000.66
2019-03-18T04:11:16.193Z,1000.71
2019-03-18T04:12:20.450Z,1000.74
2019-03-18T04:13:24.564Z,1000.69
2019-03-18T04:14:28.886Z,1000.74
2019-03-18T04:15:33.117Z,1000.74
2019-03-18T04:16:37.350Z,1000.77
2019-03-18T04:17:41.546Z,1000.77
2019-03-18T04:18:45.707Z,1000.75
2019-03-18T04:19:49.939Z,1000.74
2019-03-18T04:20:54.215Z,1000.75
2019-03-18T04:21:58.322Z,1000.75
2019-03-18T04:23:02.608Z,1000.82
2019-03-18T04:24:06.959Z,1000.82
2019-03-18T04:25:11.141Z,1000.79
2019-03-18T04:26:15.288Z,1000.76
2019-03-18T04:27:19.508Z,1000.73
2019-03-18T04:28:23.748Z,1000.78
2019-03-18T04:29:27.924Z,1000.82
2019-03-18T04:30:32.115Z,1000.87
2019-03-18T04:31:36.327Z,1000.80
2019-03-18T04:32:40.549Z,1000.76
2019-03-18T04:33:44.803Z,1000.82
2019-03-18T04:34:49.027Z,1000.86
2019-03-18T04:35:53.264Z,1000.85
2019-03-18T04:36:57.493Z,1000.91
2019-03-18T04:38:01.688Z,1000.90
2019-03-18T04:39:05.908Z,1000.94
2019-03-18T04:40:10.142Z,1000.87
2019-03-18T04:41:14.323Z,1000.91
2019-03-18T04:42:18.739Z,1000.93
2019-03-18T04:43:22.754Z,1000.91
2019-03-18T04:44:26.980Z,1000.85
2019-03-18T04:45:31.206Z,1000.87
2019-03-18T04:46:35.472Z,1000.93
2019-03-18T04:47:39.561Z,1000.90
2019-03-18T04:48:43.825Z,1000.86
2019-03-18T04:49:47.948Z,1000.91
2019-03-18T04:50:52.210Z,1000.93
2019-03-18T04:51:56.336Z,1000.95
2019-03-18T04:53:00.603Z,1000.90
2019-03-18T04:54:04.814Z,1000.90
2019-03-18T04:55:09.041Z,1000.94
2019-03-18T04:56:13.233Z,1000.92
2019-03-18T04:57:17.462Z,1000.95
2019-03-18T04:58:21.668Z,1000.98
2019-03-18T04:59:25.788Z,1001.04
2019-03-18T05:00:30.047Z,1001.00
2019-03-18T05:01:34.065Z,1000.97
2019-03-18T05:02:38.401Z,1000.97
2019-03-18T05:03:42.576Z,1000.98
2019-03-18T05:04:46.801Z,1000.98
2019-03-18T05:05:50.916Z,1000.96
2019-03-18T05:06:55.248Z,1001.05
2019-03-18T05:07:59.546Z,1001.00
2019-03-18T05:09:03.718Z,1001.02
2019-03-18T05:10:07.926Z,1000.99
2019-03-18T05:11:12.137Z,1001.05
2019-03-18T05:12:16.368Z,1001.07
2019-03-18T05:13:20.554Z,1001.09
2019-03-18T05:14:24.773Z,1001.11
2019-03-18T05:15:28.983Z,1001.09
2019-03-18T05:16:33.215Z,1001.09
2019-03-18T05:17:37.450Z,1001.11
2019-03-18T05:18:41.618Z,1001.12
2019-03-18T05:19:45.865Z,1001.16
2019-03-18T05:20:50.043Z,1001.14
2019-03-18T05:21:54.242Z,1001.15
2019-03-18T05:22:58.478Z,1001.15
2019-03-18T05:24:02.673Z,1001.18
2019-03-18T05:25:06.889Z,1001.14
2019-03-18T05:26:11.133Z,1001.17
2019-03-18T05:27:15.272Z,1001.19
2019-03-18T05:28:19.542Z,1001.19
2019-03-18T05:29:26.672Z,1001.20
2019-03-18T05:30:30.001Z,1001.17
2019-03-18T05:31:34.200Z,1001.18
2019-03-18T05:32:38.395Z,1001.13
2019-03-18T05:33:42.508Z,1001.12
2019-03-18T05:34:46.781Z,1001.09
2019-03-18T05:35:51.002Z,1001.11
2019-03-18T05:36:55.238Z,1001.11
2019-03-18T05:37:59.428Z,1001.16
2019-03-18T05:39:03.644Z,1001.21
2019-03-18T05:40:07.886Z,1001.27
2019-03-18T05:41:12.107Z,1001.26
2019-03-18T05:42:16.264Z,1001.27
2019-03-18T05:43:20.555Z,1001.35
2019-03-18T05:44:24.786Z,1001.32
2019-03-18T05:45:29.000Z,1001.28
2019-03-18T05:46:33.200Z,1001.25
2019-03-18T05:47:39.695Z,1001.28
2019-03-18T05:48:41.709Z,1001.29
2019-03-18T05:49:45.902Z,1001.32
2019-03-18T05:50:50.153Z,1001.34
2019-03-18T05:51:54.339Z,1001.30
2019-03-18T05:52:58.626Z,1001.34
2019-03-18T05:54:02.818Z,1001.34
2019-03-18T05:55:07.028Z,1001.29
2019-03-18T05:56:11.244Z,1001.34
2019-03-18T05:57:15.454Z,1001.38
2019-03-18T05:58:19.550Z,1001.41
2019-03-18T05:59:23.851Z,1001.39
2019-03-18T06:00:28.052Z,1001.41
2019-03-18T06:01:32.247Z,1001.41
2019-03-18T06:02:36.462Z,1001.45
2019-03-18T06:03:40.806Z,1001.38
2019-03-18T06:04:44.969Z,1001.40
2019-03-18T06:05:49.211Z,1001.39
2019-03-18T06:06:53.443Z,1001.40
2019-03-18T06:07:57.645Z,1001.40
2019-03-18T06:09:01.892Z,1001.42
2019-03-18T06:10:06.129Z,1001.43
2019-03-18T06:11:10.366Z,1001.42
2019-03-18T06:12:14.641Z,1001.46
2019-03-18T06:13:18.834Z,1001.46
2019-03-18T06:14:23.190Z,1001.51
2019-03-18T06:15:27.442Z,1001.48
2019-03-18T06:16:31.582Z,1001.46
2019-03-18T06:17:35.751Z,1001.51
2019-03-18T06:18:40.000Z,1001.55
2019-03-18T06:19:44.228Z,1001.52
2019-03-18T06:20:48.360Z,1001.49
2019-03-18T06:21:52.655Z,1001.48
2019-03-18T06:22:56.888Z,1001.51
2019-03-18T06:24:01.088Z,1001.58
2019-03-18T06:25:05.233Z,1001.59
2019-03-18T06:26:09.499Z,1001.62
2019-03-18T06:27:13.717Z,1001.59
2019-03-18T06:28:17.928Z,1001.58
2019-03-18T06:29:22.177Z,1001.62
2019-03-18T06:30:26.420Z,1001.61
2019-03-18T06:31:30.544Z,1001.58
2019-03-18T06:32:34.733Z,1001.64
2019-03-18T06:33:39.037Z,1001.65
2019-03-18T06:34:43.285Z,1001.66
2019-03-18T06:35:47.458Z,1001.66
2019-03-18T06:36:51.693Z,1001.69
2019-03-18T06:37:55.992Z,1001.66
2019-03-18T06:39:00.218Z,1001.73
2019-03-18T06:40:04.549Z,1001.69
2019-03-18T06:41:08.635Z,1001.68
2019-03-18T06:42:12.929Z,1001.74
2019-03-18T06:43:17.243Z,1001.75
2019-03-18T06:44:21.411Z,1001.75
2019-03-18T06:45:25.645Z,1001.74
2019-03-18T06:46:29.899Z,1001.75
2019-03-18T06:47:34.004Z,1001.77
2019-03-18T06:48:38.269Z,1001.75
2019-03-18T06:49:42.490Z,1001.76
2019-03-18T06:50:46.735Z,1001.82
2019-03-18T06:51:50.944Z,1001.82
2019-03-18T06:52:55.171Z,1001.84
2019-03-18T06:53:59.425Z,1001.87
2019-03-18T06:55:03.657Z,1001.86
2019-03-18T06:56:07.886Z,1001.88
2019-03-18T06:57:12.199Z,1001.97
2019-03-18T06:58:16.365Z,1001.90
2019-03-18T06:59:20.620Z,1001.94
2019-03-18T07:00:24.852Z,1001.98
2019-03-18T07:01:29.094Z,1001.98
2019-03-18T07:02:33.301Z,1002.02
2019-03-18T07:03:37.544Z,1002.01
2019-03-18T07:04:41.778Z,1002.08
2019-03-18T07:05:46.273Z,1002.12
2019-03-18T07:06:50.214Z,1002.14
2019-03-18T07:07:54.521Z,1002.15
2019-03-18T07:08:58.701Z,1002.15
2019-03-18T07:10:02.889Z,1002.19
2019-03-18T07:11:07.081Z,1002.20
2019-03-18T07:12:11.344Z,1002.20
2019-03-18T07:13:15.554Z,1002.19
2019-03-18T07:14:19.810Z,1002.17
2019-03-18T07:15:24.034Z,1002.15
2019-03-18T07:16:28.253Z,1002.18
2019-03-18T07:17:32.507Z,1002.14
2019-03-18T07:18:36.716Z,1002.15
2019-03-18T07:19:40.863Z,1002.21
2019-03-18T07:20:45.184Z,1002.18
2019-03-18T07:21:49.523Z,1002.26
2019-03-18T07:22:53.675Z,1002.30
2019-03-18T07:23:57.893Z,1002.32
2019-03-18T07:25:02.147Z,1002.32
2019-03-18T07:26:06.383Z,1002.29
2019-03-18T07:27:10.643Z,1002.31
2019-03-18T07:28:14.860Z,1002.36
2019-03-18T07:29:19.148Z,1002.41
2019-03-18T07:30:26.275Z,1002.33
2019-03-18T07:31:29.601Z,1002.36
2019-03-18T07:32:33.773Z,1002.33
2019-03-18T07:33:38.117Z,1002.34
2019-03-18T07:34:42.306Z,1002.31
2019-03-18T07:35:46.414Z,1002.26
2019-03-18T07:36:50.814Z,1002.27
2019-03-18T07:37:54.980Z,1002.26
2019-03-18T07:38:59.188Z,1002.34
2019-03-18T07:40:03.484Z,1002.33
2019-03-18T07:41:07.679Z,1002.37
2019-03-18T07:42:11.878Z,1002.28
2019-03-18T07:43:16.190Z,1002.21
2019-03-18T07:44:20.425Z,1002.28
2019-03-18T07:45:24.628Z,1002.24
2019-03-18T07:46:28.945Z,1002.23
2019-03-18T07:47:33.135Z,1002.25
2019-03-18T07:48:37.450Z,1002.25
2019-03-18T07:49:41.469Z,1002.26
2019-03-18T07:50:45.805Z,1002.35
2019-03-18T07:51:50.166Z,1002.34
2019-03-18T07:52:54.347Z,1002.31
2019-03-18T07:53:58.568Z,1002.35
2019-03-18T07:55:02.724Z,1002.37
2019-03-18T07:56:07.015Z,1002.34
2019-03-18T07:57:11.277Z,1002.33
2019-03-18T07:58:16.411Z,1002.34
2019-03-18T07:59:20.205Z,1002.39
2019-03-18T08:00:24.502Z,1002.37
2019-03-18T08:01:28.715Z,1002.35
2019-03-18T08:02:33.012Z,1002.36
2019-03-18T08:03:37.191Z,1002.40
2019-03-18T08:04:41.394Z,1002.30
2019-03-18T08:05:45.675Z,1002.41
2019-03-18T08:06:49.924Z,1002.41
2019-03-18T08:07:54.171Z,1002.55
2019-03-18T08:08:58.506Z,1002.57
2019-03-18T08:10:02.568Z,1002.53
2019-03-18T08:11:06.849Z,1002.58
2019-03-18T08:12:11.034Z,1002.57
2019-03-18T08:13:15.398Z,1002.55
2019-03-18T08:14:19.631Z,1002.64
2019-03-18T08:15:23.932Z,1002.67
2019-03-18T08:16:28.175Z,1002.69
2019-03-18T08:17:32.527Z,1002.72
2019-03-18T08:18:43.143Z,1002.70
2019-03-18T08:19:41.054Z,1002.66
2019-03-18T08:20:45.249Z,1002.71
2019-03-18T08:21:49.504Z,1002.70
2019-03-18T08:22:53.802Z,1002.72
2019-03-18T08:23:58.041Z,1002.80
2019-03-18T08:25:02.190Z,1002.76
2019-03-18T08:26:06.490Z,1002.74
2019-03-18T08:27:10.640Z,1002.70
2019-03-18T08:28:14.972Z,1002.72
2019-03-18T08:29:19.243Z,1002.78
2019-03-18T08:30:23.474Z,1002.75
2019-03-18T08:31:27.582Z,1002.68
2019-03-18T08:32:31.906Z,1002.78
2019-03-18T08:33:36.233Z,1002.78
2019-03-18T08:34:40.404Z,1002.81
2019-03-18T08:35:44.549Z,1002.79
2019-03-18T08:36:48.807Z,1002.83
2019-03-18T08:37:54.847Z,1002.88
2019-03-18T08:38:57.361Z,1002.91
2019-03-18T08:40:01.691Z,1002.92
2019-03-18T08:41:05.865Z,1002.92
2019-03-18T08:42:10.154Z,1002.93
2019-03-18T08:43:14.417Z,1002.99
2019-03-18T08:44:18.529Z,1002.97
2019-03-18T08:45:22.828Z,1002.95
2019-03-18T08:46:27.173Z,1003.00
2019-03-18T08:47:31.349Z,1003.02
2019-03-18T08:48:35.507Z,1003.02
2019-03-18T08:49:39.877Z,1003.04
2019-03-18T08:50:44.108Z,1003.07
2019-03-18T08:51:48.352Z,1003.07
2019-03-18T08:52:52.606Z,1003.08
2019-03-18T08:53:56.652Z,1003.05
2019-03-18T08:55:00.967Z,1003.12
2019-03-18T08:56:05.189Z,1003.08
2019-03-18T08:57:09.413Z,1003.16
2019-03-18T08:58:13.542Z,1003.21
2019-03-18T08:59:17.780Z,1003.18
2019-03-18T09:00:21.891Z,1003.24
2019-03-18T09:01:26.093Z,1003.25
2019-03-18T09:02:30.414Z,1003.24
2019-03-18T09:03:34.576Z,1003.27
2019-03-18T09:04:38.765Z,1003.31
2019-03-18T09:05:43.055Z,1003.26
2019-03-18T09:06:47.186Z,1003.24
2019-03-18T09:07:51.614Z,1003.28
2019-03-18T09:08:55.790Z,1003.29
2019-03-18T09:09:59.918Z,1003.30
2019-03-18T09:11:04.036Z,1003.34
2019-03-18T09:12:08.381Z,1003.28
2019-03-18T09:13:12.745Z,1003.35
2019-03-18T09:14:16.958Z,1003.34
2019-03-18T09:15:21.172Z,1003.36
2019-03-18T09:16:25.508Z,1003.25
2019-03-18T09:17:29.661Z,1003.25
2019-03-18T09:18:33.978Z,1003.30
2019-03-18T09:19:38.071Z,1003.37
2019-03-18T09:20:42.396Z,1003.37
2019-03-18T09:21:46.674Z,1003.35
2019-03-18T09:22:50.791Z,1003.38
2019-03-18T09:23:55.132Z,1003.44
2019-03-18T09:24:59.422Z,1003.35
2019-03-18T09:26:03.488Z,1003.38
2019-03-18T09:27:07.846Z,1003.39
2019-03-18T09:28:12.031Z,1003.42
2019-03-18T09:29:16.333Z,1003.48
2019-03-18T09:30:20.572Z,1003.53
2019-03-18T09:31:24.774Z,1003.54
2019-03-18T09:32:29.062Z,1003.47
2019-03-18T09:33:33.167Z,1003.46
2019-03-18T09:34:37.504Z,1003.51
2019-03-18T09:35:41.727Z,1003.48
2019-03-18T09:36:46.823Z,1003.46
2019-03-18T09:37:50.704Z,1003.35
2019-03-18T09:38:54.994Z,1003.41
2019-03-18T09:39:59.128Z,1003.37
2019-03-18T09:41:03.417Z,1003.42
2019-03-18T09:42:07.766Z,1003.33
2019-03-18T09:43:11.993Z,1003.33
2019-03-18T09:44:16.150Z,1003.36
2019-03-18T09:45:20.532Z,1003.35
2019-03-18T09:46:24.642Z,1003.40
2019-03-18T09:47:28.958Z,1003.49
2019-03-18T09:48:33.207Z,1003.43
2019-03-18T09:49:37.400Z,1003.53
2019-03-18T09:50:41.589Z,1003.50
2019-03-18T09:51:45.825Z,1003.50
2019-03-18T09:52:50.100Z,1003.47
2019-03-18T09:53:54.310Z,1003.47
2019-03-18T09:54:58.543Z,1003.41
2019-03-18T09:56:02.824Z,1003.50
2019-03-18T09:57:07.066Z,1003.48
2019-03-18T09:58:11.334Z,1003.49
2019-03-18T09:59:15.545Z,1003.46
2019-03-18T10:00:19.834Z,1003.50
2019-03-18T10:01:24.028Z,1003.43
2019-03-18T10:02:28.330Z,1003.52
2019-03-18T10:03:32.588Z,1003.51
2019-03-18T10:04:36.772Z,1003.53
2019-03-18T10:05:43.763Z,1003.55
2019-03-18T10:06:45.268Z,1003.55
2019-03-18T10:07:49.529Z,1003.57
2019-03-18T10:08:53.585Z,1003.68
2019-03-18T10:09:57.933Z,1003.65
2019-03-18T10:11:02.140Z,1003.62
2019-03-18T10:12:06.301Z,1003.64
2019-03-18T10:13:10.594Z,1003.73
2019-03-18T10:14:14.851Z,1003.74
2019-03-18T10:15:19.125Z,1003.73
2019-03-18T10:16:23.298Z,1003.74
2019-03-18T10:17:27.442Z,1003.69
2019-03-18T10:18:31.742Z,1003.74
2019-03-18T10:19:35.888Z,1003.70
2019-03-18T10:20:40.217Z,1003.77
2019-03-18T10:21:44.335Z,1003.75
2019-03-18T10:22:48.641Z,1003.78
2019-03-18T10:23:52.814Z,1003.86
2019-03-18T10:24:57.223Z,1003.83
2019-03-18T10:26:01.414Z,1003.85
2019-03-18T10:27:05.560Z,1003.88
2019-03-18T10:28:09.860Z,1003.83
2019-03-18T10:29:14.031Z,1003.86
2019-03-18T10:30:18.352Z,1003.88
2019-03-18T10:31:22.585Z,1003.93
2019-03-18T10:32:26.748Z,1004.01
2019-03-18T10:33:31.038Z,1003.94
2019-03-18T10:34:35.169Z,1004.00
2019-03-18T10:35:39.513Z,1004.01
2019-03-18T10:36:43.771Z,1004.09
2019-03-18T10:37:48.089Z,1004.13
2019-03-18T10:38:52.946Z,1004.18
2019-03-18T10:39:56.565Z,1004.19
2019-03-18T10:41:00.795Z,1004.25
2019-03-18T10:42:04.931Z,1004.26
2019-03-18T10:43:09.054Z,1004.29
2019-03-18T10:44:13.383Z,1004.26
2019-03-18T10:45:17.557Z,1004.31
2019-03-18T10:46:21.869Z,1004.36
2019-03-18T10:47:26.061Z,1004.37
2019-03-18T10:48:30.250Z,1004.42
2019-03-18T10:49:45.399Z,1004.43
2019-03-18T10:50:38.710Z,1004.48
2019-03-18T10:51:43.089Z,1004.39
2019-03-18T10:52:47.329Z,1004.35
2019-03-18T10:53:51.542Z,1004.39
2019-03-18T10:54:55.818Z,1004.45
2019-03-18T10:56:07.694Z,1004.45
2019-03-18T10:57:04.271Z,1004.44
2019-03-18T10:58:08.538Z,1004.52
2019-03-18T10:59:12.890Z,1004.51
2019-03-18T11:00:17.166Z,1004.57
2019-03-18T11:01:21.399Z,1004.55
2019-03-18T11:02:25.518Z,1004.52
2019-03-18T11:03:29.824Z,1004.52
2019-03-18T11:04:34.086Z,1004.55
2019-03-18T11:05:38.358Z,1004.51
2019-03-18T11:06:42.567Z,1004.54
2019-03-18T11:07:46.831Z,1004.56
2019-03-18T11:08:51.079Z,1004.58
2019-03-18T11:09:55.336Z,1004.59
2019-03-18T11:10:59.754Z,1004.56
2019-03-18T11:12:03.984Z,1004.61
2019-03-18T11:13:08.132Z,1004.64
2019-03-18T11:14:12.317Z,1004.64
2019-03-18T11:15:16.614Z,1004.53
2019-03-18T11:16:20.791Z,1004.53
2019-03-18T11:17:25.121Z,1004.56
2019-03-18T11:18:29.264Z,1004.53
2019-03-18T11:19:33.554Z,1004.56
2019-03-18T11:20:37.851Z,1004.59
2019-03-18T11:21:42.036Z,1004.61
2019-03-18T11:22:46.423Z,1004.59
2019-03-18T11:23:50.649Z,1004.64
2019-03-18T11:24:54.910Z,1004.61
2019-03-18T11:25:59.180Z,1004.64
2019-03-18T11:27:03.476Z,1004.68
2019-03-18T11:28:07.808Z,1004.67
2019-03-18T11:29:11.879Z,1004.69
2019-03-18T11:30:16.190Z,1004.68
2019-03-18T11:31:20.503Z,1004.74
2019-03-18T11:32:24.742Z,1004.69
2019-03-18T11:33:29.124Z,1004.74
2019-03-18T11:34:33.308Z,1004.65
2019-03-18T11:35:37.546Z,1004.67
2019-03-18T11:36:41.774Z,1004.70
2019-03-18T11:37:46.131Z,1004.77
2019-03-18T11:38:50.366Z,1004.73
2019-03-18T11:39:54.602Z,1004.79
2019-03-18T11:40:58.891Z,1004.70
2019-03-18T11:42:03.165Z,1004.68
2019-03-18T11:43:07.437Z,1004.69
2019-03-18T11:44:11.716Z,1004.71
2019-03-18T11:45:15.990Z,1004.70
2019-03-18T11:46:20.230Z,1004.67
2019-03-18T11:47:24.439Z,1004.65
2019-03-18T11:48:28.831Z,1004.63
2019-03-18T11:49:39.479Z,1004.59
2019-03-18T11:50:37.307Z,1004.64
2019-03-18T11:51:44.586Z,1004.56
2019-03-18T11:52:47.951Z,1004.50
2019-03-18T11:53:52.311Z,1004.51
2019-03-18T11:54:56.461Z,1004.56
2019-03-18T11:56:00.884Z,1004.49
2019-03-18T11:57:05.167Z,1004.52
2019-03-18T11:58:09.342Z,1004.57
2019-03-18T11:59:13.721Z,1004.53
2019-03-18T12:00:17.864Z,1004.45
2019-03-18T12:01:22.182Z,1004.43
2019-03-18T12:02:28.059Z,1004.41
2019-03-18T12:03:30.733Z,1004.45
2019-03-18T12:04:34.964Z,1004.45
2019-03-18T12:05:39.281Z,1004.41
2019-03-18T12:06:43.682Z,1004.35
2019-03-18T12:07:47.932Z,1004.37
2019-03-18T12:08:52.225Z,1004.23
2019-03-18T12:09:56.588Z,1004.29
2019-03-18T12:11:00.809Z,1004.35
2019-03-18T12:12:05.058Z,1004.40
2019-03-18T12:13:09.334Z,1004.44
2019-03-18T12:14:13.628Z,1004.34
2019-03-18T12:15:17.904Z,1004.36
2019-03-18T12:16:22.186Z,1004.38
2019-03-18T12:17:28.495Z,1004.38
2019-03-18T12:18:30.725Z,1004.37
2019-03-18T12:19:34.887Z,1004.31
2019-03-18T12:20:39.253Z,1004.36
2019-03-18T12:21:43.469Z,1004.43
2019-03-18T12:22:47.785Z,1004.44
2019-03-18T12:23:52.076Z,1004.36
2019-03-18T12:24:56.406Z,1004.57
2019-03-18T12:26:00.614Z,1004.60
2019-03-18T12:27:04.843Z,1004.79
2019-03-18T12:28:09.096Z,1004.91
2019-03-18T12:29:13.354Z,1005.02
2019-03-18T12:30:17.590Z,1005.10
2019-03-18T12:31:21.981Z,1005.06
2019-03-18T12:32:26.134Z,1005.10
2019-03-18T12:33:30.383Z,1005.15
2019-03-18T12:34:34.621Z,1005.11
2019-03-18T12:35:38.901Z,1005.06
2019-03-18T12:36:43.141Z,1005.09
2019-03-18T12:37:47.387Z,1005.09
2019-03-18T12:38:51.664Z,1005.12
2019-03-18T12:39:55.802Z,1005.12
2019-03-18T12:41:00.119Z,1005.13
2019-03-18T12:42:04.380Z,1005.16
2019-03-18T12:43:08.492Z,1005.23
2019-03-18T12:44:12.849Z,1005.26
2019-03-18T12:45:17.055Z,1005.34
2019-03-18T12:46:21.331Z,1005.36
2019-03-18T12:47:25.602Z,1005.40
2019-03-18T12:48:29.933Z,1005.43
2019-03-18T12:49:34.055Z,1005.46
2019-03-18T12:50:54.601Z,1005.45
2019-03-18T12:51:42.599Z,1005.49
2019-03-18T12:52:46.750Z,1005.45
2019-03-18T12:53:50.969Z,1005.46
2019-03-18T12:54:55.173Z,1005.40
2019-03-18T12:55:59.487Z,1005.50
2019-03-18T12:57:03.754Z,1005.42